createdAt,value
2018-10-17T00:01:46.502Z,14.43
2018-10-17T00:04:16.723Z,15.23
2018-10-17T00:06:44.928Z,14.20
2018-10-17T00:09:19.455Z,14.57
2018-10-17T00:11:51.839Z,13.40
2018-10-17T00:14:26.166Z,13.40
2018-10-17T00:16:57.024Z,14.03
2018-10-17T00:19:25.131Z,14.57
2018-10-17T00:21:55.947Z,14.47
2018-10-17T00:24:24.041Z,13.30
2018-10-17T00:26:54.881Z,14.17
2018-10-17T00:29:22.985Z,12.77
2018-10-17T00:31:59.021Z,13.00
2018-10-17T00:34:27.195Z,12.00
2018-10-17T00:36:58.250Z,12.00
2018-10-17T00:39:37.851Z,13.53
2018-10-17T00:42:12.136Z,12.57
2018-10-17T00:44:40.500Z,12.50
2018-10-17T00:47:10.676Z,13.57
2018-10-17T00:49:38.771Z,12.20
2018-10-17T00:52:13.256Z,12.03
2018-10-17T00:54:56.116Z,12.97
2018-10-17T00:57:24.256Z,12.87
2018-10-17T01:00:01.718Z,12.20
2018-10-17T01:02:34.730Z,13.93
2018-10-17T01:05:07.996Z,12.27
2018-10-17T01:07:39.062Z,11.30
2018-10-17T01:10:20.781Z,12.13
2018-10-17T01:12:48.852Z,14.00
2018-10-17T01:15:28.544Z,13.03
2018-10-17T01:17:56.678Z,12.63
2018-10-17T01:20:27.851Z,11.50
2018-10-17T01:22:57.925Z,12.27
2018-10-17T01:25:26.174Z,12.87
2018-10-17T01:28:05.785Z,10.87
2018-10-17T01:30:33.783Z,10.90
2018-10-17T01:33:06.971Z,11.87
2018-10-17T01:35:35.154Z,11.73
2018-10-17T01:38:06.118Z,12.00
2018-10-17T01:40:38.734Z,12.37
2018-10-17T01:43:11.167Z,12.73
2018-10-17T01:45:42.191Z,12.20
2018-10-17T01:48:14.043Z,12.60
2018-10-17T01:50:42.415Z,14.37
2018-10-17T01:53:13.635Z,12.73
2018-10-17T01:55:41.950Z,12.93
2018-10-17T01:58:16.392Z,11.10
2018-10-17T02:00:49.761Z,11.80
2018-10-17T02:03:26.501Z,12.50
2018-10-17T02:05:54.539Z,12.13
2018-10-17T02:08:25.451Z,13.57
2018-10-17T02:10:53.685Z,14.97
2018-10-17T02:13:26.712Z,14.50
2018-10-17T02:15:57.061Z,13.63
2018-10-17T02:18:25.104Z,13.47
2018-10-17T02:20:56.067Z,11.83
2018-10-17T02:23:24.220Z,11.83
2018-10-17T02:25:55.493Z,13.67
2018-10-17T02:28:30.007Z,13.60
2018-10-17T02:31:04.167Z,15.23
2018-10-17T02:33:47.702Z,15.00
2018-10-17T02:36:22.210Z,14.13
2018-10-17T02:38:55.201Z,13.57
2018-10-17T02:41:23.562Z,13.93
2018-10-17T02:43:51.720Z,14.23
2018-10-17T02:46:25.891Z,14.47
2018-10-17T02:48:58.186Z,13.93
2018-10-17T02:51:26.265Z,12.93
2018-10-17T02:53:57.372Z,12.10
2018-10-17T02:56:35.021Z,12.53
2018-10-17T02:59:11.822Z,14.43
2018-10-17T03:01:39.867Z,13.43
2018-10-17T03:04:14.684Z,13.77
2018-10-17T03:06:42.854Z,14.03
2018-10-17T03:09:17.417Z,14.23
2018-10-17T03:11:49.728Z,12.97
2018-10-17T03:14:24.306Z,13.33
2018-10-17T03:16:54.299Z,13.33
2018-10-17T03:19:25.545Z,12.87
2018-10-17T03:21:53.612Z,12.83
2018-10-17T03:24:29.533Z,12.60
2018-10-17T03:26:57.841Z,12.80
2018-10-17T03:29:26.030Z,11.93
2018-10-17T03:32:05.998Z,13.27
2018-10-17T03:34:34.112Z,11.40
2018-10-17T03:37:07.316Z,12.80
2018-10-17T03:39:39.515Z,12.40
2018-10-17T03:42:09.662Z,11.80
2018-10-17T03:44:37.774Z,11.73
2018-10-17T03:47:13.082Z,13.17
2018-10-17T03:49:45.365Z,12.63
2018-10-17T03:52:13.505Z,12.27
2018-10-17T03:54:41.448Z,11.03
2018-10-17T03:57:22.133Z,11.73
2018-10-17T03:59:56.590Z,12.27
2018-10-17T04:02:30.939Z,13.43
2018-10-17T04:05:01.931Z,13.53
2018-10-17T04:07:29.971Z,15.03
2018-10-17T04:10:05.414Z,14.60
2018-10-17T04:12:38.377Z,15.00
2018-10-17T04:15:08.913Z,14.67
2018-10-17T04:17:37.312Z,15.20
2018-10-17T04:20:07.931Z,15.10
2018-10-17T04:22:42.471Z,15.63
2018-10-17T04:25:20.239Z,14.60
2018-10-17T04:27:55.771Z,14.60
2018-10-17T04:30:33.436Z,14.87
2018-10-17T04:33:01.559Z,14.50
2018-10-17T04:35:32.606Z,14.47
2018-10-17T04:38:02.712Z,14.77
2018-10-17T04:40:30.834Z,17.27
2018-10-17T04:43:11.165Z,15.97
2018-10-17T04:45:44.227Z,17.13
2018-10-17T04:48:12.403Z,15.40
2018-10-17T04:50:46.968Z,15.70
2018-10-17T04:53:15.223Z,15.03
2018-10-17T04:55:47.290Z,14.40
2018-10-17T04:58:15.564Z,13.73
2018-10-17T05:00:43.610Z,13.33
2018-10-17T05:03:14.497Z,14.13
2018-10-17T05:05:42.723Z,16.00
2018-10-17T05:08:12.005Z,15.07
2018-10-17T05:10:45.078Z,16.73
2018-10-17T05:13:13.274Z,16.27
2018-10-17T05:15:47.789Z,15.23
2018-10-17T05:18:18.651Z,15.90
2018-10-17T05:20:48.809Z,15.90
2018-10-17T05:23:16.838Z,15.53
2018-10-17T05:25:50.886Z,13.90
2018-10-17T05:28:19.012Z,15.73
2018-10-17T05:30:53.362Z,15.37
2018-10-17T05:33:26.503Z,15.63
2018-10-17T05:35:57.146Z,16.20
2018-10-17T05:38:28.466Z,15.87
2018-10-17T05:40:58.748Z,16.73
2018-10-17T05:43:27.013Z,17.50
2018-10-17T05:45:58.072Z,15.87
2018-10-17T05:48:26.639Z,17.10
2018-10-17T05:50:56.735Z,18.60
2018-10-17T05:53:24.861Z,16.77
2018-10-17T05:56:06.710Z,16.30
2018-10-17T05:58:35.202Z,15.47
2018-10-17T06:01:03.492Z,15.33
2018-10-17T06:03:31.449Z,14.83
2018-10-17T06:06:06.892Z,17.07
2018-10-17T06:08:45.209Z,15.83
2018-10-17T06:11:23.597Z,14.33
2018-10-17T06:14:06.638Z,15.83
2018-10-17T06:16:34.773Z,14.87
2018-10-17T06:19:07.663Z,15.83
2018-10-17T06:21:44.365Z,16.40
2018-10-17T06:24:16.487Z,16.33
2018-10-17T06:26:44.758Z,16.80
2018-10-17T06:31:50.426Z,18.07
2018-10-17T06:34:21.248Z,17.53
2018-10-17T06:36:49.388Z,17.80
2018-10-17T06:39:23.805Z,17.43
2018-10-17T06:41:56.144Z,18.53
2018-10-17T06:44:26.323Z,18.37
2018-10-17T06:46:54.425Z,16.30
2018-10-17T06:49:27.413Z,21.07
2018-10-17T06:51:55.504Z,18.60
2018-10-17T06:54:27.165Z,18.53
2018-10-17T06:56:55.324Z,18.37
2018-10-17T06:59:26.201Z,18.80
2018-10-17T07:01:54.543Z,17.83
2018-10-17T07:04:27.336Z,16.77
2018-10-17T07:06:57.547Z,16.93
2018-10-17T07:09:25.656Z,16.17
2018-10-17T07:12:00.282Z,17.00
2018-10-17T07:14:31.308Z,16.87
2018-10-17T07:17:01.484Z,17.50
2018-10-17T07:19:29.602Z,18.23
2018-10-17T07:22:04.196Z,17.83
2018-10-17T07:24:44.710Z,17.67
2018-10-17T07:27:12.774Z,17.77
2018-10-17T07:29:52.888Z,18.57
2018-10-17T07:32:20.985Z,19.60
2018-10-17T07:34:53.111Z,17.67
2018-10-17T07:37:25.392Z,19.00
2018-10-17T07:39:55.918Z,18.70
2018-10-17T07:42:38.159Z,18.43
2018-10-17T07:45:11.416Z,17.87
2018-10-17T07:47:39.652Z,19.40
2018-10-17T07:50:15.456Z,18.53
2018-10-17T07:52:43.620Z,20.13
2018-10-17T07:55:15.712Z,18.93
2018-10-17T07:57:48.828Z,21.17
2018-10-17T08:00:16.929Z,20.07
2018-10-17T08:02:51.403Z,19.70
2018-10-17T08:05:22.266Z,19.90
2018-10-17T08:07:50.322Z,20.10
2018-10-17T08:10:24.829Z,20.93
2018-10-17T08:13:00.260Z,19.50
2018-10-17T08:15:29.633Z,21.07
2018-10-17T08:17:59.777Z,19.00
2018-10-17T08:20:30.824Z,20.63
2018-10-17T08:23:01.075Z,20.17
2018-10-17T08:25:35.574Z,19.63
2018-10-17T08:28:10.198Z,20.50
2018-10-17T08:30:41.017Z,18.80
2018-10-17T08:33:09.357Z,19.77
2018-10-17T08:35:37.510Z,20.23
2018-10-17T08:38:09.788Z,20.17
2018-10-17T08:40:38.031Z,19.80
2018-10-17T08:43:06.394Z,19.67
2018-10-17T08:45:34.543Z,19.33
2018-10-17T08:48:13.195Z,19.67
2018-10-17T08:50:41.548Z,20.23
2018-10-17T08:53:14.116Z,19.10
2018-10-17T08:55:42.241Z,19.07
2018-10-17T08:58:14.641Z,19.67
2018-10-17T09:00:48.972Z,20.17
2018-10-17T09:06:02.183Z,19.50
2018-10-17T09:08:35.969Z,19.10
2018-10-17T09:11:04.133Z,19.97
2018-10-17T09:13:37.327Z,20.90
2018-10-17T09:16:12.068Z,19.97
2018-10-17T09:18:48.830Z,20.47
2018-10-17T09:21:17.410Z,19.50
2018-10-17T09:23:45.289Z,19.23
2018-10-17T09:26:19.299Z,17.00
2018-10-17T09:28:47.692Z,16.43
2018-10-17T09:31:15.781Z,15.77
2018-10-17T09:33:48.642Z,15.60
2018-10-17T09:36:16.778Z,16.57
2018-10-17T09:38:48.905Z,15.90
2018-10-17T09:41:22.833Z,16.07
2018-10-17T09:44:00.417Z,15.87
2018-10-17T09:46:28.666Z,15.67
2018-10-17T09:48:58.657Z,13.97
2018-10-17T09:51:29.112Z,13.47
2018-10-17T09:53:57.340Z,12.47
2018-10-17T09:56:25.504Z,12.33
2018-10-17T09:58:56.477Z,11.53
2018-10-17T10:01:30.474Z,10.10
2018-10-17T10:04:03.567Z,9.63
2018-10-17T10:06:43.228Z,9.70
2018-10-17T10:09:14.087Z,9.70
2018-10-17T10:11:42.105Z,8.40
2018-10-17T10:14:15.219Z,8.33
2018-10-17T10:16:43.371Z,7.77
2018-10-17T10:19:20.965Z,8.07
2018-10-17T10:21:49.156Z,8.53
2018-10-17T10:24:20.217Z,9.97
2018-10-17T10:26:50.370Z,9.17
2018-10-17T10:29:18.468Z,8.70
2018-10-17T10:31:50.694Z,7.87
2018-10-17T10:34:19.591Z,8.40
2018-10-17T10:37:01.542Z,8.13
2018-10-17T10:39:31.999Z,6.83
2018-10-17T10:42:02.111Z,7.80
2018-10-17T10:44:30.236Z,6.90
2018-10-17T10:47:02.423Z,6.80
2018-10-17T10:49:35.491Z,6.77
2018-10-17T10:52:06.450Z,6.53
2018-10-17T10:54:34.502Z,7.13
2018-10-17T10:57:02.675Z,6.90
2018-10-17T10:59:44.799Z,6.20
2018-10-17T11:02:15.051Z,6.90
2018-10-17T11:04:43.171Z,6.33
2018-10-17T11:07:17.715Z,6.37
2018-10-17T11:09:49.004Z,6.87
2018-10-17T11:12:23.465Z,6.70
2018-10-17T11:15:03.293Z,6.67
2018-10-17T11:17:31.288Z,6.67
2018-10-17T11:19:59.347Z,6.17
2018-10-17T11:22:27.470Z,6.90
2018-10-17T11:25:00.431Z,6.60
2018-10-17T11:27:30.605Z,6.70
2018-10-17T11:29:58.823Z,6.17
2018-10-17T11:32:29.750Z,6.90
2018-10-17T11:34:58.122Z,6.60
2018-10-17T11:37:26.298Z,7.00
2018-10-17T11:40:00.846Z,6.50
2018-10-17T11:42:36.928Z,6.43
2018-10-17T11:45:16.936Z,6.13
2018-10-17T11:47:45.057Z,6.50
2018-10-17T11:50:24.736Z,6.13
2018-10-17T11:52:52.841Z,6.07
2018-10-17T11:55:22.936Z,5.97
2018-10-17T11:57:51.165Z,5.97
2018-10-17T12:00:19.177Z,6.00
2018-10-17T12:02:50.352Z,6.60
2018-10-17T12:05:18.685Z,6.17
2018-10-17T12:07:55.113Z,6.30
2018-10-17T12:10:23.167Z,6.07
2018-10-17T12:12:55.402Z,5.70
2018-10-17T12:15:25.643Z,6.40
2018-10-17T12:17:53.707Z,5.83
2018-10-17T12:20:24.653Z,5.50
2018-10-17T12:22:52.796Z,6.03
2018-10-17T12:25:27.450Z,6.03
2018-10-17T12:27:55.593Z,5.90
2018-10-17T12:30:27.788Z,5.87
2018-10-17T12:32:57.892Z,6.20
2018-10-17T12:35:25.981Z,5.77
2018-10-17T12:37:58.132Z,5.80
2018-10-17T12:40:26.564Z,6.53
2018-10-17T12:42:54.715Z,6.67
2018-10-17T12:45:27.099Z,6.17
2018-10-17T12:48:01.274Z,6.63
2018-10-17T12:50:33.538Z,6.27
2018-10-17T12:53:02.285Z,6.00
2018-10-17T12:55:30.239Z,6.10
2018-10-17T12:57:58.220Z,6.50
2018-10-17T13:00:37.683Z,6.27
2018-10-17T13:03:07.804Z,6.30
2018-10-17T13:05:36.013Z,6.23
2018-10-17T13:08:08.476Z,6.67
2018-10-17T13:10:40.937Z,6.03
2018-10-17T13:13:14.924Z,5.60
2018-10-17T13:15:45.879Z,6.50
2018-10-17T13:18:18.249Z,6.37
2018-10-17T13:20:51.189Z,6.33
2018-10-17T13:23:19.412Z,6.37
2018-10-17T13:25:47.571Z,6.50
2018-10-17T13:28:23.063Z,6.10
2018-10-17T13:30:58.323Z,5.50
2018-10-17T13:33:29.340Z,6.40
2018-10-17T13:35:57.491Z,5.47
2018-10-17T13:38:35.003Z,6.17
2018-10-17T13:41:07.324Z,5.73
2018-10-17T13:43:38.320Z,5.70
2018-10-17T13:46:06.692Z,5.70
2018-10-17T13:48:34.779Z,5.77
2018-10-17T13:51:12.299Z,5.57
2018-10-17T13:53:45.464Z,5.10
2018-10-17T13:56:13.515Z,5.40
2018-10-17T13:58:41.364Z,5.83
2018-10-17T14:01:12.354Z,6.23
2018-10-17T14:03:42.981Z,5.03
2018-10-17T14:06:10.876Z,5.87
2018-10-17T14:08:41.759Z,5.57
2018-10-17T14:11:14.092Z,5.37
2018-10-17T14:13:45.131Z,5.87
2018-10-17T14:16:15.512Z,5.30
2018-10-17T14:18:43.639Z,4.83
2018-10-17T14:21:23.197Z,5.17
2018-10-17T14:23:51.325Z,5.43
2018-10-17T14:26:25.570Z,5.90
2018-10-17T14:28:58.753Z,5.53
2018-10-17T14:31:26.964Z,5.87
2018-10-17T14:33:59.226Z,5.57
2018-10-17T14:36:41.673Z,5.90
2018-10-17T14:39:15.253Z,5.70
2018-10-17T14:41:48.970Z,5.93
2018-10-17T14:44:17.034Z,5.57
2018-10-17T14:46:51.603Z,6.13
2018-10-17T14:49:26.091Z,6.20
2018-10-17T14:51:59.459Z,5.97
2018-10-17T14:54:30.456Z,5.97
2018-10-17T14:56:58.614Z,6.27
2018-10-17T14:59:26.649Z,6.37
2018-10-17T15:01:56.826Z,5.73
2018-10-17T15:04:25.036Z,5.90
2018-10-17T15:06:56.176Z,6.07
2018-10-17T15:09:27.129Z,6.40
2018-10-17T15:11:55.539Z,5.83
2018-10-17T15:14:29.710Z,6.43
2018-10-17T15:17:02.699Z,5.93
2018-10-17T15:19:31.073Z,5.87
2018-10-17T15:21:59.142Z,6.27
2018-10-17T15:24:38.964Z,6.20
2018-10-17T15:27:07.115Z,6.07
2018-10-17T15:29:40.028Z,6.00
2018-10-17T15:32:08.222Z,6.50
2018-10-17T15:34:41.528Z,6.33
2018-10-17T15:37:15.701Z,6.13
2018-10-17T15:39:47.850Z,6.10
2018-10-17T15:42:16.123Z,6.47
2018-10-17T15:44:49.249Z,6.73
2018-10-17T15:47:29.622Z,6.23
2018-10-17T15:50:01.823Z,6.90
2018-10-17T15:52:30.203Z,6.37
2018-10-17T15:54:58.253Z,6.83
2018-10-17T15:57:29.284Z,7.80
2018-10-17T15:59:59.692Z,6.60
2018-10-17T16:02:27.993Z,7.70
2018-10-17T16:04:56.234Z,7.73
2018-10-17T16:07:27.288Z,8.50
2018-10-17T16:09:55.677Z,8.90
2018-10-17T16:12:24.183Z,10.00
2018-10-17T16:14:57.116Z,9.57
2018-10-17T16:17:37.996Z,10.00
2018-10-17T16:20:10.512Z,11.13
2018-10-17T16:22:39.008Z,10.40
2018-10-17T16:25:07.676Z,10.63
2018-10-17T16:27:35.962Z,10.63
2018-10-17T16:30:09.118Z,10.30
2018-10-17T16:32:39.962Z,10.47
2018-10-17T16:35:13.446Z,10.47
2018-10-17T16:37:43.869Z,9.30
2018-10-17T16:40:14.084Z,10.20
2018-10-17T16:42:42.194Z,9.00
2018-10-17T16:45:17.484Z,9.10
2018-10-17T16:47:55.712Z,9.63
2018-10-17T16:50:25.836Z,10.00
2018-10-17T16:53:02.725Z,9.87
2018-10-17T16:55:38.821Z,10.27
2018-10-17T16:58:06.987Z,10.00
2018-10-17T17:00:37.931Z,8.60
2018-10-17T17:03:06.074Z,9.70
2018-10-17T17:05:39.189Z,9.57
2018-10-17T17:08:10.068Z,10.07
2018-10-17T17:10:38.252Z,10.17
2018-10-17T17:13:09.125Z,9.20
2018-10-17T17:15:37.030Z,9.47
2018-10-17T17:18:06.983Z,9.00
2018-10-17T17:20:37.635Z,9.77
2018-10-17T17:23:08.981Z,9.90
2018-10-17T17:25:37.142Z,10.90
2018-10-17T17:28:07.397Z,12.00
2018-10-17T17:30:37.556Z,12.00
2018-10-17T17:33:05.798Z,11.13
2018-10-17T17:35:36.902Z,10.90
2018-10-17T17:38:06.962Z,11.27
2018-10-17T17:40:35.041Z,11.03
2018-10-17T17:43:05.287Z,10.97
2018-10-17T17:45:35.356Z,12.37
2018-10-17T17:48:06.126Z,12.57
2018-10-17T17:50:34.461Z,12.30
2018-10-17T17:53:02.494Z,13.17
2018-10-17T17:55:33.347Z,14.10
2018-10-17T17:58:01.706Z,12.67
2018-10-17T18:00:43.499Z,13.23
2018-10-17T18:03:11.960Z,12.97
2018-10-17T18:05:40.164Z,12.83
2018-10-17T18:08:11.044Z,13.47
2018-10-17T18:10:39.280Z,13.27
2018-10-17T18:13:07.467Z,13.17
2018-10-17T18:15:38.278Z,13.30
2018-10-17T18:18:06.444Z,12.93
2018-10-17T18:20:43.186Z,12.97
2018-10-17T18:23:11.381Z,12.80
2018-10-17T18:25:46.596Z,13.20
2018-10-17T18:28:19.925Z,13.30
2018-10-17T18:30:49.856Z,12.53
2018-10-17T18:33:23.600Z,13.17
2018-10-17T18:35:51.915Z,12.67
2018-10-17T18:38:20.020Z,13.30
2018-10-17T18:40:59.808Z,13.20
2018-10-17T18:43:28.006Z,15.23
2018-10-17T18:46:04.094Z,13.80
2018-10-17T18:48:35.244Z,14.97
2018-10-17T18:51:03.556Z,13.23
2018-10-17T18:53:40.226Z,15.67
2018-10-17T18:56:08.329Z,17.77
2018-10-17T18:58:46.098Z,22.50
2018-10-17T19:01:14.233Z,25.43
2018-10-17T19:03:45.094Z,25.57
2018-10-17T19:06:13.283Z,26.70
2018-10-17T19:08:46.357Z,30.30
2018-10-17T19:11:14.885Z,30.87
2018-10-17T19:13:45.079Z,32.93
2018-10-17T19:16:13.239Z,31.90
2018-10-17T19:18:49.521Z,35.03
2018-10-17T19:21:31.466Z,35.53
2018-10-17T19:23:59.557Z,36.50
2018-10-17T19:26:30.681Z,35.00
2018-10-17T19:29:12.699Z,35.60
2018-10-17T19:31:40.952Z,36.87
2018-10-17T19:34:14.708Z,37.20
2018-10-17T19:36:42.854Z,38.67
2018-10-17T19:39:18.780Z,39.93
2018-10-17T19:41:47.117Z,39.77
2018-10-17T19:44:15.219Z,38.97
2018-10-17T19:46:50.681Z,39.40
2018-10-17T19:49:23.923Z,37.90
2018-10-17T19:51:55.323Z,35.17
2018-10-17T19:54:34.859Z,37.23
2018-10-17T19:57:09.557Z,35.83
2018-10-17T19:59:44.041Z,35.63
2018-10-17T20:02:16.490Z,34.20
2018-10-17T20:04:47.200Z,31.77
2018-10-17T20:07:15.391Z,30.13
2018-10-17T20:09:49.774Z,29.63
2018-10-17T20:12:24.243Z,29.33
2018-10-17T20:14:58.863Z,29.07
2018-10-17T20:17:26.933Z,29.77
2018-10-17T20:20:06.848Z,28.73
2018-10-17T20:22:34.968Z,27.60
2018-10-17T20:25:07.688Z,27.17
2018-10-17T20:27:42.072Z,27.33
2018-10-17T20:30:14.456Z,24.43
2018-10-17T20:32:51.036Z,25.53
2018-10-17T20:35:19.164Z,25.57
2018-10-17T20:37:53.462Z,26.20
2018-10-17T20:40:24.556Z,23.93
2018-10-17T20:42:52.620Z,24.50
2018-10-17T20:45:32.542Z,24.73
2018-10-17T20:48:00.719Z,24.87
2018-10-17T20:50:35.292Z,27.03
2018-10-17T20:53:03.434Z,27.50
2018-10-17T20:55:37.995Z,27.60
2018-10-17T20:58:08.120Z,27.00
2018-10-17T21:00:36.213Z,25.83
2018-10-17T21:03:04.319Z,27.07
2018-10-17T21:05:35.338Z,27.10
2018-10-17T21:08:03.450Z,27.97
2018-10-17T21:10:36.405Z,26.73
2018-10-17T21:13:04.705Z,23.57
2018-10-17T21:15:32.725Z,27.37
2018-10-17T21:18:05.822Z,27.13
2018-10-17T21:20:33.908Z,29.70
2018-10-17T21:23:04.820Z,28.63
2018-10-17T21:25:32.948Z,30.00
2018-10-17T21:28:08.255Z,28.17
2018-10-17T21:30:43.596Z,27.80
2018-10-17T21:33:17.872Z,27.60
2018-10-17T21:35:49.334Z,27.00
2018-10-17T21:38:27.572Z,32.03
2018-10-17T21:40:55.858Z,28.60
2018-10-17T21:43:23.931Z,30.67
2018-10-17T21:46:01.230Z,29.83
2018-10-17T21:48:34.427Z,27.50
2018-10-17T21:51:02.497Z,28.77
2018-10-17T21:53:39.122Z,28.87
2018-10-17T21:56:07.239Z,28.63
2018-10-17T21:58:45.508Z,28.40
2018-10-17T22:01:16.666Z,26.80
2018-10-17T22:03:44.752Z,29.90
2018-10-17T22:06:15.777Z,32.97
2018-10-17T22:08:44.167Z,28.83
2018-10-17T22:11:12.245Z,29.30
2018-10-17T22:13:48.505Z,31.37
2018-10-17T22:16:19.381Z,29.43
2018-10-17T22:18:47.758Z,31.20
2018-10-17T22:21:20.632Z,30.73
2018-10-17T22:23:51.776Z,36.07
2018-10-17T22:26:19.982Z,36.30
2018-10-17T22:28:55.424Z,37.87
2018-10-17T22:31:29.670Z,36.30
2018-10-17T22:34:01.263Z,36.77
2018-10-17T22:36:32.095Z,40.17
2018-10-17T22:39:00.231Z,41.93
2018-10-17T22:41:40.139Z,37.37
2018-10-17T22:44:08.479Z,40.20
2018-10-17T22:46:43.760Z,40.47
2018-10-17T22:49:16.801Z,39.97
2018-10-17T22:51:46.908Z,38.80
2018-10-17T22:54:14.980Z,42.17
2018-10-17T22:56:50.436Z,41.67
2018-10-17T22:59:30.390Z,40.87
2018-10-17T23:01:58.572Z,39.70
2018-10-17T23:04:34.851Z,43.23
2018-10-17T23:07:08.305Z,38.07
2018-10-17T23:09:43.751Z,38.20
2018-10-17T23:12:14.673Z,40.97
2018-10-17T23:14:42.817Z,36.70
2018-10-17T23:17:20.824Z,39.00
2018-10-17T23:19:52.247Z,40.53
2018-10-17T23:22:22.523Z,49.33
2018-10-17T23:24:50.679Z,42.97
2018-10-17T23:27:24.901Z,43.47
2018-10-17T23:29:55.793Z,46.80
2018-10-17T23:32:23.816Z,46.67
2018-10-17T23:34:57.135Z,43.03
2018-10-17T23:37:27.623Z,43.63
2018-10-17T23:40:06.712Z,44.63
2018-10-17T23:42:34.790Z,42.67
2018-10-17T23:45:09.333Z,44.27
2018-10-17T23:47:41.795Z,43.23
2018-10-17T23:50:18.568Z,43.07
2018-10-17T23:52:46.607Z,44.20
2018-10-17T23:55:17.519Z,45.40
2018-10-17T23:57:45.696Z,39.77
